Time;durP1;ratioP1;P1;durP2;ratioP2;P2;SDS_P1;SDS_P2;PMS_P1;PMS_P2;Temp;Humidity;BMP_temperature;BMP_pressure;BME280_temperature;BME280_humidity;BME280_pressure;Samples;Min_cycle;Max_cycle;Signal;HPM_P1;HPM_P2
2021/05/17 00:01:13;;;;;;;4.30;3.60;;;;;;;;;;5002944;28;20629;-45
2021/05/17 00:03:41;;;;;;;3.63;3.33;;;;;;;;;;5006274;28;20187;-45
2021/05/17 00:06:06;;;;;;;3.87;3.40;;;;;;;;;;5011304;28;20180;-45
2021/05/17 00:08:31;;;;;;;3.40;3.20;;;;;;;;;;5003234;28;21032;-45
2021/05/17 00:10:57;;;;;;;3.53;3.23;;;;;;;;;;5002286;28;20318;-45
2021/05/17 00:13:22;;;;;;;4.03;3.57;;;;;;;;;;5006398;28;20205;-45
2021/05/17 00:15:47;;;;;;;3.40;3.20;;;;;;;;;;5017674;28;20192;-44
2021/05/17 00:18:12;;;;;;;8.57;4.47;;;;;;;;;;5010242;28;20189;-45
2021/05/17 00:20:38;;;;;;;4.50;4.00;;;;;;;;;;5015277;28;20190;-44
2021/05/17 00:23:03;;;;;;;4.30;3.90;;;;;;;;;;4996250;28;20173;-44
2021/05/17 00:25:28;;;;;;;5.63;3.73;;;;;;;;;;5001982;28;20185;-44
2021/05/17 00:27:55;;;;;;;3.17;2.93;;;;;;;;;;5014402;28;20174;-44
2021/05/17 00:30:21;;;;;;;3.30;3.00;;;;;;;;;;4996271;28;20527;-44
2021/05/17 00:32:47;;;;;;;4.07;3.77;;;;;;;;;;4999952;28;20597;-44
2021/05/17 00:35:13;;;;;;;4.03;3.63;;;;;;;;;;5000049;28;21024;-44
2021/05/17 00:37:38;;;;;;;4.30;3.90;;;;;;;;;;5008850;28;20227;-44
2021/05/17 00:40:04;;;;;;;4.60;3.80;;;;;;;;;;5005819;28;20591;-44
2021/05/17 00:42:30;;;;;;;6.57;4.07;;;;;;;;;;5008699;28;20168;-44
2021/05/17 00:44:55;;;;;;;4.00;3.60;;;;;;;;;;5017527;28;20598;-44
2021/05/17 00:47:22;;;;;;;4.40;4.07;;;;;;;;;;5020585;28;20193;-44
2021/05/17 00:49:48;;;;;;;4.57;4.17;;;;;;;;;;5015286;28;20209;-44
2021/05/17 00:52:17;;;;;;;4.80;4.20;;;;;;;;;;5003079;28;20614;-44
2021/05/17 00:54:44;;;;;;;4.80;4.50;;;;;;;;;;5008310;28;20191;-45
2021/05/17 00:57:09;;;;;;;4.47;4.17;;;;;;;;;;5001088;28;20639;-45
2021/05/17 00:59:34;;;;;;;4.90;3.63;;;;;;;;;;5006127;28;20603;-44
2021/05/17 01:02:00;;;;;;;5.93;4.00;;;;;;;;;;5011946;28;20166;-44
2021/05/17 01:04:25;;;;;;;4.40;4.10;;;;;;;;;;5008547;28;20257;-45
2021/05/17 01:06:51;;;;;;;4.27;3.90;;;;;;;;;;5004137;28;20209;-50
2021/05/17 01:09:17;;;;;;;4.70;4.13;;;;;;;;;;5001946;28;20224;-46
2021/05/17 01:11:42;;;;;;;4.80;3.90;;;;;;;;;;5015673;28;20677;-45
2021/05/17 01:14:08;;;;;;;5.13;3.87;;;;;;;;;;5016852;28;20313;-45
2021/05/17 01:16:33;;;;;;;6.90;4.10;;;;;;;;;;5011146;28;20666;-45
2021/05/17 01:18:59;;;;;;;4.60;4.20;;;;;;;;;;5008710;28;20607;-45
2021/05/17 01:21:27;;;;;;;4.67;4.17;;;;;;;;;;5010133;28;20183;-45
2021/05/17 01:23:55;;;;;;;3.90;3.60;;;;;;;;;;5007541;28;20179;-45
2021/05/17 01:26:25;;;;;;;4.00;3.60;;;;;;;;;;5013930;28;21007;-45
2021/05/17 01:28:52;;;;;;;4.57;4.17;;;;;;;;;;5010719;28;20968;-45
2021/05/17 01:31:17;;;;;;;3.50;3.20;;;;;;;;;;5007602;28;20756;-45
2021/05/17 01:33:43;;;;;;;4.00;3.70;;;;;;;;;;5005661;28;21076;-45
2021/05/17 01:36:09;;;;;;;4.00;3.60;;;;;;;;;;5005622;28;20175;-46
2021/05/17 01:38:35;;;;;;;4.20;3.80;;;;;;;;;;4997589;28;20644;-45
2021/05/17 01:41:02;;;;;;;4.73;3.47;;;;;;;;;;4999350;28;20614;-46
2021/05/17 01:43:31;;;;;;;5.07;3.33;;;;;;;;;;5005175;28;20604;-46
2021/05/17 01:45:59;;;;;;;3.97;3.60;;;;;;;;;;5008334;28;20599;-46
2021/05/17 01:48:25;;;;;;;4.60;4.10;;;;;;;;;;5003104;28;20601;-45
2021/05/17 01:50:51;;;;;;;4.33;4.00;;;;;;;;;;5008211;28;21085;-45
2021/05/17 01:53:17;;;;;;;3.87;3.43;;;;;;;;;;4998342;28;20646;-45
2021/05/17 01:55:42;;;;;;;4.43;4.03;;;;;;;;;;5002268;28;20177;-44
2021/05/17 01:58:07;;;;;;;3.80;3.50;;;;;;;;;;5007267;28;20707;-45
2021/05/17 02:00:32;;;;;;;3.53;3.22;;;;;;;;;;5010487;28;20178;-48
2021/05/17 02:02:58;;;;;;;4.73;4.33;;;;;;;;;;5001796;28;20216;-45
2021/05/17 02:05:23;;;;;;;5.33;4.00;;;;;;;;;;5000348;28;20176;-46
2021/05/17 02:07:48;;;;;;;4.30;4.00;;;;;;;;;;5012399;28;20196;-45
2021/05/17 02:10:14;;;;;;;3.97;3.67;;;;;;;;;;5001188;28;20247;-45
2021/05/17 02:12:39;;;;;;;4.57;4.17;;;;;;;;;;5002457;28;20279;-45
2021/05/17 02:15:04;;;;;;;4.00;3.60;;;;;;;;;;5008625;28;20285;-45
2021/05/17 02:17:30;;;;;;;4.40;4.00;;;;;;;;;;5011662;28;20230;-44
2021/05/17 02:19:55;;;;;;;3.53;3.27;;;;;;;;;;5015048;28;20186;-45
2021/05/17 02:22:21;;;;;;;4.40;4.00;;;;;;;;;;5008788;28;20254;-45
2021/05/17 02:24:47;;;;;;;3.50;3.20;;;;;;;;;;5002213;28;20185;-45
2021/05/17 02:27:15;;;;;;;3.67;3.37;;;;;;;;;;5007137;28;20708;-45
2021/05/17 02:29:41;;;;;;;4.17;3.87;;;;;;;;;;5010962;28;20612;-46
2021/05/17 02:32:07;;;;;;;3.57;3.20;;;;;;;;;;5000159;28;20680;-46
2021/05/17 02:34:32;;;;;;;3.40;3.10;;;;;;;;;;5009429;28;20239;-45
2021/05/17 02:36:57;;;;;;;3.40;3.20;;;;;;;;;;5013148;28;20226;-44
2021/05/17 02:39:22;;;;;;;3.80;3.50;;;;;;;;;;5013627;28;20179;-44
2021/05/17 02:41:49;;;;;;;4.50;4.10;;;;;;;;;;5004918;28;20183;-44
2021/05/17 02:44:15;;;;;;;3.93;3.57;;;;;;;;;;5012917;28;20323;-45
2021/05/17 02:46:40;;;;;;;3.90;3.30;;;;;;;;;;5003717;28;20628;-45
2021/05/17 02:49:05;;;;;;;4.13;3.80;;;;;;;;;;5008921;28;20178;-44
2021/05/17 02:51:31;;;;;;;4.60;3.57;;;;;;;;;;5003030;28;20180;-45
2021/05/17 02:54:07;;;;;;;3.57;3.27;;;;;;;;;;4998264;28;20748;-44
2021/05/17 02:56:43;;;;;;;3.57;3.27;;;;;;;;;;4992521;28;20182;-44
2021/05/17 02:59:12;;;;;;;3.50;3.20;;;;;;;;;;5007396;28;21163;-45
2021/05/17 03:01:41;;;;;;;3.80;3.50;;;;;;;;;;5006687;28;20987;-44
2021/05/17 03:04:12;;;;;;;4.00;3.60;;;;;;;;;;5004408;28;21159;-44
2021/05/17 03:06:42;;;;;;;3.23;2.93;;;;;;;;;;4993972;28;20603;-44
2021/05/17 03:09:08;;;;;;;3.57;3.37;;;;;;;;;;5007717;28;20612;-45
2021/05/17 03:11:40;;;;;;;4.03;3.70;;;;;;;;;;5015624;28;20744;-44
2021/05/17 03:14:07;;;;;;;3.93;3.63;;;;;;;;;;5008078;28;20609;-45
2021/05/17 03:16:33;;;;;;;3.07;2.87;;;;;;;;;;5002294;28;21176;-44
2021/05/17 03:18:58;;;;;;;8.40;3.47;;;;;;;;;;5004735;28;20684;-43
2021/05/17 03:21:26;;;;;;;4.07;3.10;;;;;;;;;;5008285;28;20599;-44
2021/05/17 03:23:52;;;;;;;3.23;2.93;;;;;;;;;;4999955;28;20167;-43
2021/05/17 03:26:17;;;;;;;2.90;2.70;;;;;;;;;;5003584;28;20630;-44
2021/05/17 03:28:42;;;;;;;3.00;2.83;;;;;;;;;;5010093;28;20639;-44
2021/05/17 03:31:08;;;;;;;3.60;3.30;;;;;;;;;;5003973;28;20309;-43
2021/05/17 03:33:33;;;;;;;4.03;3.20;;;;;;;;;;4990896;28;20654;-44
2021/05/17 03:35:58;;;;;;;3.30;3.00;;;;;;;;;;5006919;28;20199;-45
2021/05/17 03:38:23;;;;;;;4.05;3.75;;;;;;;;;;5007653;28;20900;-45
2021/05/17 03:40:48;;;;;;;3.58;3.30;;;;;;;;;;5008461;28;20187;-44
2021/05/17 03:43:13;;;;;;;3.78;3.42;;;;;;;;;;5000611;28;20175;-45
2021/05/17 03:45:38;;;;;;;4.47;3.47;;;;;;;;;;4995752;28;20971;-45
2021/05/17 03:48:04;;;;;;;3.88;3.58;;;;;;;;;;4998252;28;20233;-45
2021/05/17 03:50:29;;;;;;;3.73;3.13;;;;;;;;;;5010721;28;20179;-45
2021/05/17 03:52:54;;;;;;;3.43;3.13;;;;;;;;;;5004207;28;20266;-45
2021/05/17 03:55:19;;;;;;;2.75;2.60;;;;;;;;;;5018764;28;20198;-44
2021/05/17 03:57:44;;;;;;;3.20;3.00;;;;;;;;;;5010234;28;20217;-44
2021/05/17 04:00:10;;;;;;;3.37;3.17;;;;;;;;;;5005306;28;20188;-45
2021/05/17 04:02:35;;;;;;;3.20;3.00;;;;;;;;;;5009257;28;20180;-44
2021/05/17 04:15:21;;;;;;;2.83;2.47;;;;;;;;;;5007158;28;21034;-45
2021/05/17 04:17:47;;;;;;;6.07;3.43;;;;;;;;;;4997715;28;20664;-45
2021/05/17 04:20:12;;;;;;;2.70;2.50;;;;;;;;;;5003754;28;20192;-45
2021/05/17 04:22:37;;;;;;;3.00;2.80;;;;;;;;;;4995515;28;20546;-45
2021/05/17 04:25:03;;;;;;;3.10;2.90;;;;;;;;;;5002139;28;20183;-45
2021/05/17 04:27:28;;;;;;;3.17;2.87;;;;;;;;;;5006449;28;20695;-45
2021/05/17 04:29:53;;;;;;;3.30;3.10;;;;;;;;;;4999557;28;21156;-46
2021/05/17 04:32:19;;;;;;;3.43;3.10;;;;;;;;;;5002578;28;20177;-46
2021/05/17 04:34:44;;;;;;;3.60;3.30;;;;;;;;;;4999949;28;20319;-45
2021/05/17 04:37:09;;;;;;;4.30;3.75;;;;;;;;;;4990821;28;20201;-46
2021/05/17 04:39:34;;;;;;;3.97;3.40;;;;;;;;;;5007007;28;20177;-46
2021/05/17 04:41:59;;;;;;;4.10;2.97;;;;;;;;;;5005878;28;20761;-46
2021/05/17 04:44:26;;;;;;;3.30;3.00;;;;;;;;;;5006345;28;20165;-46
2021/05/17 04:46:51;;;;;;;4.47;3.90;;;;;;;;;;5007493;28;20177;-46
2021/05/17 04:49:16;;;;;;;4.10;3.80;;;;;;;;;;5001939;28;20665;-46
2021/05/17 04:51:42;;;;;;;3.75;3.33;;;;;;;;;;5016317;28;20562;-46
2021/05/17 04:54:07;;;;;;;4.55;3.63;;;;;;;;;;5023493;28;20196;-46
2021/05/17 04:56:32;;;;;;;3.47;3.08;;;;;;;;;;5003397;28;20218;-46
2021/05/17 04:58:57;;;;;;;3.90;3.60;;;;;;;;;;5005595;28;20702;-46
2021/05/17 05:01:22;;;;;;;4.47;3.80;;;;;;;;;;5000402;28;20242;-46
2021/05/17 05:03:47;;;;;;;5.35;4.43;;;;;;;;;;5014600;28;20208;-46
2021/05/17 05:06:12;;;;;;;5.50;3.90;;;;;;;;;;5008720;28;20551;-46
2021/05/17 05:08:38;;;;;;;4.10;3.73;;;;;;;;;;5010481;28;20169;-46
2021/05/17 05:11:03;;;;;;;3.90;3.70;;;;;;;;;;5014004;28;20232;-46
2021/05/17 05:13:28;;;;;;;3.93;3.63;;;;;;;;;;5013875;28;20281;-46
2021/05/17 05:15:53;;;;;;;4.97;3.80;;;;;;;;;;5008935;28;20330;-47
2021/05/17 05:18:20;;;;;;;4.23;3.83;;;;;;;;;;5012034;28;20210;-47
2021/05/17 05:20:45;;;;;;;4.90;3.93;;;;;;;;;;5006915;28;20175;-46
2021/05/17 05:23:17;;;;;;;5.33;3.70;;;;;;;;;;5018006;28;20606;-46
2021/05/17 05:28:37;;;;;;;5.70;4.23;;;;;;;;;;5027215;28;20575;-46
2021/05/17 05:31:14;;;;;;;4.67;3.70;;;;;;;;;;5021173;28;20604;-46
2021/05/17 05:33:40;;;;;;;3.77;3.40;;;;;;;;;;5005846;28;20750;-46
2021/05/17 05:36:05;;;;;;;3.80;3.50;;;;;;;;;;5006990;28;20955;-45
2021/05/17 05:38:30;;;;;;;5.03;4.03;;;;;;;;;;5009128;28;20611;-45
2021/05/17 05:40:55;;;;;;;4.07;3.67;;;;;;;;;;4993635;28;20189;-46
2021/05/17 05:43:20;;;;;;;5.03;4.10;;;;;;;;;;4986013;28;20174;-46
2021/05/17 05:45:46;;;;;;;4.13;2.83;;;;;;;;;;5026552;28;20180;-46
2021/05/17 05:48:12;;;;;;;4.90;3.23;;;;;;;;;;5005184;28;20604;-46
2021/05/17 05:50:40;;;;;;;3.00;2.40;;;;;;;;;;4998290;28;20240;-45
2021/05/17 05:53:06;;;;;;;2.30;2.10;;;;;;;;;;4991772;28;20218;-47
2021/05/17 05:55:32;;;;;;;3.63;2.20;;;;;;;;;;4993460;28;20654;-46
2021/05/17 05:57:57;;;;;;;1.73;1.60;;;;;;;;;;4996889;28;20596;-47
2021/05/17 06:00:29;;;;;;;1.80;1.60;;;;;;;;;;4988144;28;20677;-46
2021/05/17 06:02:54;;;;;;;1.50;1.37;;;;;;;;;;4997748;28;20179;-47
2021/05/17 06:05:19;;;;;;;1.63;1.25;;;;;;;;;;4984259;28;20596;-48
2021/05/17 06:07:44;;;;;;;2.37;1.10;;;;;;;;;;4984271;28;20186;-46
2021/05/17 06:10:10;;;;;;;1.27;1.17;;;;;;;;;;4995007;28;20229;-46
2021/05/17 06:12:37;;;;;;;0.90;0.90;;;;;;;;;;4983820;28;20212;-46
2021/05/17 06:15:04;;;;;;;1.07;0.90;;;;;;;;;;5004637;28;20192;-46
2021/05/17 06:17:29;;;;;;;1.20;1.13;;;;;;;;;;5009887;28;21036;-46
2021/05/17 06:19:55;;;;;;;1.17;0.97;;;;;;;;;;5010328;28;20597;-45
2021/05/17 06:22:21;;;;;;;1.13;0.90;;;;;;;;;;5006025;28;20178;-46
2021/05/17 06:24:46;;;;;;;1.00;0.97;;;;;;;;;;5022517;28;20174;-46
2021/05/17 06:27:11;;;;;;;0.90;0.90;;;;;;;;;;4991626;28;20594;-45
2021/05/17 06:29:37;;;;;;;1.10;0.97;;;;;;;;;;5021095;28;20200;-45
2021/05/17 06:32:02;;;;;;;0.80;0.80;;;;;;;;;;5017709;28;20180;-46
2021/05/17 06:34:28;;;;;;;1.10;1.10;;;;;;;;;;5022327;28;20556;-46
2021/05/17 06:36:54;;;;;;;1.10;1.00;;;;;;;;;;5008793;28;20224;-46
2021/05/17 06:39:19;;;;;;;0.90;0.90;;;;;;;;;;5004172;28;20174;-46
2021/05/17 06:41:44;;;;;;;1.43;1.07;;;;;;;;;;4997833;28;20609;-47
2021/05/17 06:44:09;;;;;;;2.03;1.40;;;;;;;;;;4994582;28;20562;-46
2021/05/17 06:46:36;;;;;;;1.47;1.00;;;;;;;;;;5005855;28;20264;-46
2021/05/17 06:49:01;;;;;;;1.67;1.20;;;;;;;;;;5018360;28;20274;-47
2021/05/17 06:51:26;;;;;;;1.20;1.10;;;;;;;;;;5012097;28;20646;-45
2021/05/17 06:53:56;;;;;;;1.00;1.00;;;;;;;;;;5026497;28;20191;-46
2021/05/17 06:56:25;;;;;;;1.83;1.20;;;;;;;;;;4995051;28;20643;-45
2021/05/17 06:58:55;;;;;;;1.47;1.30;;;;;;;;;;4987339;28;20659;-46
2021/05/17 07:01:21;;;;;;;1.27;1.20;;;;;;;;;;4995998;28;20621;-46
2021/05/17 07:03:47;;;;;;;1.20;1.07;;;;;;;;;;5003847;28;20598;-45
2021/05/17 07:06:16;;;;;;;1.70;0.97;;;;;;;;;;4988895;28;20579;-46
2021/05/17 07:11:42;;;;;;;1.20;1.20;;;;;;;;;;5005117;28;20646;-47
2021/05/17 07:14:07;;;;;;;2.23;0.90;;;;;;;;;;5008199;28;20587;-47
2021/05/17 07:16:32;;;;;;;1.17;1.07;;;;;;;;;;5004488;28;20927;-45
2021/05/17 07:18:57;;;;;;;1.17;1.00;;;;;;;;;;5007982;28;20209;-46
2021/05/17 07:23:48;;;;;;;2.15;1.27;;;;;;;;;;5005312;28;20197;-46
2021/05/17 07:26:16;;;;;;;1.00;0.90;;;;;;;;;;4998473;28;20173;-47
2021/05/17 07:28:42;;;;;;;1.37;1.10;;;;;;;;;;4986832;28;20255;-46
2021/05/17 07:31:09;;;;;;;1.00;0.90;;;;;;;;;;5001874;28;20614;-46
2021/05/17 07:33:34;;;;;;;2.30;1.00;;;;;;;;;;5007594;28;20213;-47
2021/05/17 07:36:00;;;;;;;1.00;0.90;;;;;;;;;;5002526;28;20657;-46
2021/05/17 07:38:29;;;;;;;1.30;1.13;;;;;;;;;;5005722;28;20268;-47
2021/05/17 07:40:55;;;;;;;2.50;1.10;;;;;;;;;;5003639;28;20186;-47
2021/05/17 07:43:20;;;;;;;0.90;0.90;;;;;;;;;;4998003;28;21230;-47
2021/05/17 07:45:46;;;;;;;0.80;0.80;;;;;;;;;;5003915;28;20676;-46
2021/05/17 07:48:12;;;;;;;1.63;1.00;;;;;;;;;;4996126;28;20391;-47
2021/05/17 07:50:37;;;;;;;1.30;1.20;;;;;;;;;;4984458;28;20178;-48
2021/05/17 07:53:02;;;;;;;1.13;0.90;;;;;;;;;;4986918;28;20181;-46
2021/05/17 07:55:28;;;;;;;1.20;1.10;;;;;;;;;;5007553;28;20524;-48
2021/05/17 07:57:53;;;;;;;1.73;1.23;;;;;;;;;;5000148;28;20236;-45
2021/05/17 08:00:18;;;;;;;1.70;1.20;;;;;;;;;;4994672;28;20644;-46
2021/05/17 08:02:43;;;;;;;1.10;1.00;;;;;;;;;;5007715;28;20296;-46
2021/05/17 08:05:09;;;;;;;1.42;1.15;;;;;;;;;;5005805;28;20172;-45
2021/05/17 08:07:36;;;;;;;1.30;1.20;;;;;;;;;;5004629;28;20183;-44
2021/05/17 08:10:03;;;;;;;0.90;0.90;;;;;;;;;;5007240;28;20253;-47
2021/05/17 08:12:28;;;;;;;1.57;1.10;;;;;;;;;;5002265;28;20594;-45
2021/05/17 08:14:54;;;;;;;1.43;1.20;;;;;;;;;;4994051;28;20598;-45
2021/05/17 08:17:19;;;;;;;1.58;1.05;;;;;;;;;;5007760;28;20289;-47
2021/05/17 08:19:44;;;;;;;1.23;1.13;;;;;;;;;;5001825;28;20192;-45
2021/05/17 08:22:09;;;;;;;2.50;1.27;;;;;;;;;;5004442;28;20662;-46
2021/05/17 08:24:34;;;;;;;1.73;1.00;;;;;;;;;;4988504;28;20184;-46
2021/05/17 08:26:59;;;;;;;1.13;1.05;;;;;;;;;;4987491;28;20698;-46
2021/05/17 08:29:26;;;;;;;1.20;0.90;;;;;;;;;;4986401;28;20544;-45
2021/05/17 08:31:52;;;;;;;1.20;1.10;;;;;;;;;;4986347;28;20167;-46
2021/05/17 08:34:17;;;;;;;1.20;1.00;;;;;;;;;;4998114;28;20606;-45
2021/05/17 08:36:43;;;;;;;1.33;1.23;;;;;;;;;;5010953;28;20175;-47
2021/05/17 08:39:08;;;;;;;1.80;1.00;;;;;;;;;;5007683;28;20212;-45
2021/05/17 08:41:34;;;;;;;1.70;1.27;;;;;;;;;;4985567;28;20179;-46
2021/05/17 08:44:00;;;;;;;1.13;0.90;;;;;;;;;;4997690;28;20187;-46
2021/05/17 08:46:25;;;;;;;1.27;1.17;;;;;;;;;;4991155;28;20204;-46
2021/05/17 08:48:51;;;;;;;1.57;1.27;;;;;;;;;;4993619;28;20342;-47
2021/05/17 08:51:24;;;;;;;2.17;1.53;;;;;;;;;;5008867;28;20182;-47
2021/05/17 08:53:49;;;;;;;1.50;1.30;;;;;;;;;;4989289;28;20810;-46
2021/05/17 08:56:15;;;;;;;1.20;1.10;;;;;;;;;;4990684;28;20759;-46
2021/05/17 08:58:40;;;;;;;1.07;0.97;;;;;;;;;;4991498;28;20213;-47
2021/05/17 09:01:05;;;;;;;1.30;0.93;;;;;;;;;;4988970;28;20194;-46
2021/05/17 09:03:30;;;;;;;1.67;1.43;;;;;;;;;;4989052;28;20710;-46
2021/05/17 09:05:56;;;;;;;1.83;1.30;;;;;;;;;;4989398;28;20219;-45
2021/05/17 09:08:24;;;;;;;1.40;1.05;;;;;;;;;;4994397;28;20263;-46
2021/05/17 09:10:49;;;;;;;3.20;1.20;;;;;;;;;;4987313;28;20764;-46
2021/05/17 09:13:15;;;;;;;1.38;1.23;;;;;;;;;;4997046;28;20646;-45
2021/05/17 09:15:41;;;;;;;2.20;1.30;;;;;;;;;;5006661;28;20185;-44
2021/05/17 09:18:13;;;;;;;1.33;1.23;;;;;;;;;;4988754;28;20219;-45
2021/05/17 09:20:40;;;;;;;1.43;1.30;;;;;;;;;;5005963;28;20597;-46
2021/05/17 09:23:09;;;;;;;2.50;1.33;;;;;;;;;;5010287;28;20576;-46
2021/05/17 09:25:36;;;;;;;3.23;1.40;;;;;;;;;;5006369;28;20665;-45
2021/05/17 09:28:02;;;;;;;2.20;1.33;;;;;;;;;;5006932;28;20606;-46
2021/05/17 09:30:44;;;;;;;2.93;1.30;;;;;;;;;;4992586;28;20601;-46
2021/05/17 09:33:12;;;;;;;1.80;1.30;;;;;;;;;;4999448;28;20693;-46
2021/05/17 09:35:37;;;;;;;1.40;1.30;;;;;;;;;;5009658;28;20582;-46
2021/05/17 09:38:06;;;;;;;2.50;1.23;;;;;;;;;;5007822;28;20742;-46
2021/05/17 09:40:32;;;;;;;1.30;1.20;;;;;;;;;;5007635;28;20266;-46
2021/05/17 09:43:04;;;;;;;3.20;2.40;;;;;;;;;;5007295;28;20596;-48
2021/05/17 09:45:30;;;;;;;2.87;1.80;;;;;;;;;;5007014;28;20599;-47
2021/05/17 09:47:56;;;;;;;1.73;1.20;;;;;;;;;;5004774;28;20728;-47
2021/05/17 09:50:21;;;;;;;1.50;1.40;;;;;;;;;;5009177;28;21180;-47
2021/05/17 09:52:46;;;;;;;1.47;1.37;;;;;;;;;;5009536;28;20176;-46
2021/05/17 09:55:12;;;;;;;1.35;1.20;;;;;;;;;;4994667;28;20213;-47
2021/05/17 09:57:38;;;;;;;1.10;1.00;;;;;;;;;;4990893;28;20199;-47
2021/05/17 10:00:16;;;;;;;2.70;1.73;;;;;;;;;;4995618;28;20178;-47
2021/05/17 10:02:41;;;;;;;1.20;1.10;;;;;;;;;;4988636;28;20571;-47
2021/05/17 10:05:16;;;;;;;5.13;1.23;;;;;;;;;;4988087;28;20657;-48
2021/05/17 10:07:42;;;;;;;2.23;1.80;;;;;;;;;;4997312;28;20195;-44
2021/05/17 10:10:07;;;;;;;1.40;1.30;;;;;;;;;;5006958;28;20994;-46
2021/05/17 10:12:33;;;;;;;1.00;1.00;;;;;;;;;;4998286;28;20613;-47
2021/05/17 10:14:58;;;;;;;1.37;1.20;;;;;;;;;;5003450;28;20579;-46
2021/05/17 10:17:24;;;;;;;1.27;1.17;;;;;;;;;;4996395;28;20224;-47
2021/05/17 10:19:49;;;;;;;1.47;1.37;;;;;;;;;;5004415;28;20277;-46
2021/05/17 10:22:15;;;;;;;1.50;1.23;;;;;;;;;;5005192;28;20177;-46
2021/05/17 10:24:40;;;;;;;1.47;1.30;;;;;;;;;;5000664;28;20211;-46
2021/05/17 10:27:05;;;;;;;1.17;1.07;;;;;;;;;;5000907;28;20243;-46
2021/05/17 10:29:32;;;;;;;1.53;1.20;;;;;;;;;;5002563;28;20667;-44
2021/05/17 10:31:59;;;;;;;0.93;0.90;;;;;;;;;;4997154;28;20194;-46
2021/05/17 10:34:24;;;;;;;1.77;1.20;;;;;;;;;;5006647;28;20696;-44
2021/05/17 10:36:57;;;;;;;1.60;1.30;;;;;;;;;;5002973;28;20720;-46
2021/05/17 10:39:28;;;;;;;1.50;1.13;;;;;;;;;;4988850;28;20240;-46
2021/05/17 10:41:56;;;;;;;0.93;0.93;;;;;;;;;;4989213;28;20608;-46
2021/05/17 10:46:51;;;;;;;1.25;1.10;;;;;;;;;;5008258;28;20639;-47
2021/05/17 10:49:17;;;;;;;1.33;1.10;;;;;;;;;;5008394;28;20211;-46
2021/05/17 10:51:42;;;;;;;1.20;1.10;;;;;;;;;;5007953;28;20620;-47
2021/05/17 10:54:20;;;;;;;1.30;1.20;;;;;;;;;;5006950;28;20658;-46
2021/05/17 10:56:55;;;;;;;1.67;1.20;;;;;;;;;;5004722;28;20183;-46
2021/05/17 11:02:13;;;;;;;2.97;1.43;;;;;;;;;;4984866;28;20658;-46
2021/05/17 11:04:40;;;;;;;1.13;1.10;;;;;;;;;;4995923;28;20660;-47
2021/05/17 11:07:12;;;;;;;1.57;1.40;;;;;;;;;;5005058;28;20254;-47
2021/05/17 11:09:46;;;;;;;1.83;1.10;;;;;;;;;;5006130;28;20590;-47
2021/05/17 11:12:19;;;;;;;1.30;1.20;;;;;;;;;;5006284;28;20640;-47
2021/05/17 11:15:03;;;;;;;0.83;0.80;;;;;;;;;;4988756;28;20601;-46
2021/05/17 11:17:28;;;;;;;1.57;1.10;;;;;;;;;;4984743;28;21187;-47
2021/05/17 11:19:55;;;;;;;1.43;1.20;;;;;;;;;;4988436;28;20600;-47
2021/05/17 11:22:20;;;;;;;1.77;0.97;;;;;;;;;;4984515;28;20173;-47
2021/05/17 11:24:54;;;;;;;2.13;1.00;;;;;;;;;;5005969;28;20596;-47
2021/05/17 11:27:39;;;;;;;1.33;1.00;;;;;;;;;;5002388;28;20180;-49
2021/05/17 11:30:24;;;;;;;1.30;1.20;;;;;;;;;;5007678;28;20634;-47
2021/05/17 11:33:09;;;;;;;1.40;1.30;;;;;;;;;;5007690;28;20929;-46
2021/05/17 11:35:34;;;;;;;1.27;1.17;;;;;;;;;;4987090;28;21451;-46
2021/05/17 11:38:06;;;;;;;1.00;1.00;;;;;;;;;;4984871;28;20778;-46
2021/05/17 11:40:31;;;;;;;1.27;1.17;;;;;;;;;;4984309;28;20181;-47
2021/05/17 11:42:59;;;;;;;1.20;1.10;;;;;;;;;;4993024;28;20579;-45
2021/05/17 11:45:25;;;;;;;1.23;1.13;;;;;;;;;;5004388;28;20231;-53
2021/05/17 11:47:52;;;;;;;1.47;1.03;;;;;;;;;;5007839;28;20989;-47
2021/05/17 11:50:18;;;;;;;1.73;1.30;;;;;;;;;;5000364;28;20174;-46
2021/05/17 11:52:45;;;;;;;1.30;1.20;;;;;;;;;;4985949;28;20639;-47
2021/05/17 11:55:11;;;;;;;1.67;1.30;;;;;;;;;;5006565;28;20608;-46
2021/05/17 11:57:37;;;;;;;2.30;1.40;;;;;;;;;;5004993;28;20635;-47
2021/05/17 12:00:09;;;;;;;1.23;1.13;;;;;;;;;;4988255;28;20177;-47
2021/05/17 12:02:41;;;;;;;1.17;1.07;;;;;;;;;;4986108;28;20585;-47
2021/05/17 12:05:07;;;;;;;1.10;0.97;;;;;;;;;;4998923;28;20643;-47
2021/05/17 12:07:41;;;;;;;2.80;1.00;;;;;;;;;;5003932;28;21110;-46
2021/05/17 12:10:06;;;;;;;1.37;1.07;;;;;;;;;;5011370;28;20278;-48
2021/05/17 12:12:31;;;;;;;1.30;1.10;;;;;;;;;;5007056;28;20613;-47
2021/05/17 12:15:01;;;;;;;1.05;0.95;;;;;;;;;;4989862;28;20211;-48
2021/05/17 12:17:27;;;;;;;1.10;1.10;;;;;;;;;;4988147;28;20301;-48
2021/05/17 12:19:57;;;;;;;2.27;1.30;;;;;;;;;;4990106;28;20966;-46
2021/05/17 12:22:30;;;;;;;1.07;1.00;;;;;;;;;;4991493;28;20596;-46
2021/05/17 12:24:56;;;;;;;2.60;1.40;;;;;;;;;;5003035;28;20578;-48
2021/05/17 12:27:22;;;;;;;2.70;1.10;;;;;;;;;;4990951;28;20944;-47
2021/05/17 12:29:55;;;;;;;2.90;1.10;;;;;;;;;;5010542;28;20600;-47
2021/05/17 12:32:24;;;;;;;1.40;1.27;;;;;;;;;;5002206;28;20266;-46
2021/05/17 12:34:54;;;;;;;1.60;1.20;;;;;;;;;;4989406;28;20648;-47
2021/05/17 12:37:19;;;;;;;1.70;1.13;;;;;;;;;;5000063;28;21180;-47
2021/05/17 12:39:44;;;;;;;1.30;1.20;;;;;;;;;;5011012;28;20573;-47
2021/05/17 12:42:13;;;;;;;1.60;1.33;;;;;;;;;;5003653;28;20253;-46
2021/05/17 12:44:40;;;;;;;1.80;1.70;;;;;;;;;;4991165;28;20618;-46
2021/05/17 12:47:10;;;;;;;14.67;10.80;;;;;;;;;;4989806;28;20561;-47
2021/05/17 12:49:45;;;;;;;10.67;8.57;;;;;;;;;;4992176;28;20930;-47
2021/05/17 12:52:10;;;;;;;4.77;3.90;;;;;;;;;;5010458;28;21147;-48
2021/05/17 12:54:36;;;;;;;4.00;2.53;;;;;;;;;;4992244;28;20604;-46
2021/05/17 12:57:11;;;;;;;2.30;1.90;;;;;;;;;;4989385;28;20205;-47
2021/05/17 12:59:45;;;;;;;2.03;1.73;;;;;;;;;;4991054;28;20552;-47
2021/05/17 13:02:11;;;;;;;5.23;4.80;;;;;;;;;;4987032;28;20735;-47
2021/05/17 13:04:36;;;;;;;4.07;3.67;;;;;;;;;;5001387;28;20690;-46
2021/05/17 13:07:03;;;;;;;2.20;1.90;;;;;;;;;;5008693;28;20180;-46
2021/05/17 13:09:32;;;;;;;1.67;1.57;;;;;;;;;;5008620;28;20179;-47
2021/05/17 13:11:57;;;;;;;3.33;3.07;;;;;;;;;;5010194;28;20653;-47
2021/05/17 13:14:23;;;;;;;3.00;2.75;;;;;;;;;;5006885;28;20606;-45
2021/05/17 13:16:55;;;;;;;3.70;3.20;;;;;;;;;;4988793;28;20653;-45
2021/05/17 13:25:21;;;;;;;1.63;1.53;;;;;;;;;;5001429;28;20747;-46
2021/05/17 13:30:50;;;;;;;1.93;1.67;;;;;;;;;;4988907;28;20587;-46
2021/05/17 13:33:23;;;;;;;2.60;1.10;;;;;;;;;;4990345;28;20620;-46
2021/05/17 13:35:59;;;;;;;1.40;1.30;;;;;;;;;;5007411;28;21127;-46
2021/05/17 13:38:24;;;;;;;1.57;1.47;;;;;;;;;;5006810;28;20637;-46
2021/05/17 13:40:50;;;;;;;1.70;1.60;;;;;;;;;;5008053;28;20572;-47
2021/05/17 13:43:15;;;;;;;1.35;1.25;;;;;;;;;;5002159;28;20202;-46
2021/05/17 13:45:41;;;;;;;2.37;1.60;;;;;;;;;;4985940;28;20183;-46
2021/05/17 13:48:06;;;;;;;1.50;1.40;;;;;;;;;;4988374;28;20185;-46
2021/05/17 13:50:31;;;;;;;2.50;1.80;;;;;;;;;;4990055;28;20698;-46
2021/05/17 13:52:56;;;;;;;1.50;1.40;;;;;;;;;;4987715;28;20200;-47
2021/05/17 13:55:21;;;;;;;1.90;1.60;;;;;;;;;;5005532;28;20253;-46
2021/05/17 13:57:51;;;;;;;2.15;1.25;;;;;;;;;;5005317;28;20567;-46
2021/05/17 14:00:16;;;;;;;1.30;1.00;;;;;;;;;;4987686;28;20936;-46
2021/05/17 14:02:41;;;;;;;1.10;1.00;;;;;;;;;;4987347;28;20584;-46
2021/05/17 14:05:07;;;;;;;1.20;1.10;;;;;;;;;;5004967;28;20212;-46
2021/05/17 14:07:32;;;;;;;1.00;1.00;;;;;;;;;;5006817;28;20263;-46
2021/05/17 14:09:58;;;;;;;1.00;1.00;;;;;;;;;;5008841;28;21082;-46
2021/05/17 14:12:23;;;;;;;1.27;1.25;;;;;;;;;;5004213;28;20180;-46
2021/05/17 14:14:48;;;;;;;1.30;1.20;;;;;;;;;;4987080;28;20250;-46
2021/05/17 14:17:13;;;;;;;1.43;1.20;;;;;;;;;;4987104;28;20642;-46
2021/05/17 14:19:38;;;;;;;1.27;1.03;;;;;;;;;;4987420;28;20184;-46
2021/05/17 14:22:06;;;;;;;1.33;1.00;;;;;;;;;;4987264;28;20183;-45
2021/05/17 14:24:32;;;;;;;1.23;0.97;;;;;;;;;;4985606;28;20666;-46
2021/05/17 14:26:57;;;;;;;1.10;1.10;;;;;;;;;;5003451;28;20587;-45
2021/05/17 14:29:22;;;;;;;1.20;1.13;;;;;;;;;;4991665;28;20185;-45
2021/05/17 14:31:47;;;;;;;2.30;0.90;;;;;;;;;;4984495;28;20275;-46
2021/05/17 14:34:13;;;;;;;2.50;0.73;;;;;;;;;;4987200;28;20188;-47
2021/05/17 14:36:38;;;;;;;1.07;0.97;;;;;;;;;;4986947;28;20917;-45
2021/05/17 14:39:05;;;;;;;0.93;0.80;;;;;;;;;;4986768;28;20296;-46
2021/05/17 14:41:30;;;;;;;0.70;0.67;;;;;;;;;;4988970;28;20639;-50
2021/05/17 14:43:55;;;;;;;1.10;1.00;;;;;;;;;;4989550;28;20619;-46
2021/05/17 14:46:20;;;;;;;0.80;0.80;;;;;;;;;;4986551;28;20178;-46
2021/05/17 14:48:46;;;;;;;1.35;1.10;;;;;;;;;;4986500;28;20177;-46
2021/05/17 14:51:11;;;;;;;1.70;1.00;;;;;;;;;;4988779;28;20184;-46
2021/05/17 14:53:37;;;;;;;1.57;1.10;;;;;;;;;;4992639;28;20204;-46
2021/05/17 14:56:02;;;;;;;1.40;1.27;;;;;;;;;;5004202;28;20265;-46
2021/05/17 14:58:27;;;;;;;1.20;1.10;;;;;;;;;;5006006;28;20210;-46
2021/05/17 15:00:52;;;;;;;1.30;1.20;;;;;;;;;;5007914;28;20175;-46
2021/05/17 15:03:18;;;;;;;1.33;1.00;;;;;;;;;;5001302;28;20587;-46
2021/05/17 15:05:43;;;;;;;1.67;1.23;;;;;;;;;;5001486;28;20194;-47
2021/05/17 15:08:09;;;;;;;1.30;1.03;;;;;;;;;;5004365;28;20184;-47
2021/05/17 15:10:34;;;;;;;2.03;1.50;;;;;;;;;;5007491;28;20232;-47
2021/05/17 15:13:00;;;;;;;1.50;1.40;;;;;;;;;;5005910;28;20528;-46